createdAt,value
2022-10-01T00:02:15.713Z,43.91
2022-10-01T00:04:44.311Z,43.68
2022-10-01T00:07:15.289Z,43.68
2022-10-01T00:09:44.420Z,43.51
2022-10-01T00:12:15.953Z,43.59
2022-10-01T00:14:45.132Z,43.56
2022-10-01T00:17:13.804Z,44.05
2022-10-01T00:19:42.452Z,44.17
2022-10-01T00:22:11.360Z,44.28
2022-10-01T00:24:40.850Z,44.33
2022-10-01T00:27:10.971Z,44.16
2022-10-01T00:29:41.222Z,43.57
2022-10-01T00:32:09.998Z,43.96
2022-10-01T00:34:38.656Z,43.84
2022-10-01T00:37:10.392Z,43.46
2022-10-01T00:39:39.192Z,43.39
2022-10-01T00:42:18.219Z,43.35
2022-10-01T00:44:49.262Z,43.58
2022-10-01T00:47:27.478Z,43.31
2022-10-01T00:50:02.213Z,43.22
2022-10-01T00:52:34.415Z,43.25
2022-10-01T00:55:09.162Z,43.12
2022-10-01T00:57:37.950Z,43.02
2022-10-01T01:00:12.284Z,43.00
2022-10-01T01:02:41.386Z,43.07
2022-10-01T01:05:13.619Z,43.08
2022-10-01T01:07:46.082Z,43.14
2022-10-01T01:10:17.635Z,42.73
2022-10-01T01:13:01.724Z,42.93
2022-10-01T01:15:38.086Z,42.76
2022-10-01T01:18:11.995Z,42.46
2022-10-01T01:21:20.033Z,42.36
2022-10-01T01:24:13.497Z,42.35
2022-10-01T01:26:54.190Z,42.31
2022-10-01T01:29:30.664Z,42.48
2022-10-01T01:32:12.616Z,42.01
2022-10-01T01:34:47.997Z,41.82
2022-10-01T01:37:20.722Z,41.75
2022-10-01T01:39:54.605Z,41.58
2022-10-01T01:42:31.189Z,41.19
2022-10-01T01:45:03.896Z,41.26
2022-10-01T01:47:34.352Z,40.94
2022-10-01T01:50:05.566Z,41.00
2022-10-01T01:52:35.152Z,40.84
2022-10-01T01:55:07.387Z,40.74
2022-10-01T01:57:40.546Z,40.65
2022-10-01T02:00:12.826Z,40.57
2022-10-01T02:02:46.585Z,40.45
2022-10-01T02:05:19.054Z,40.65
2022-10-01T02:08:12.907Z,40.40
2022-10-01T02:11:06.382Z,40.81
2022-10-01T02:13:48.556Z,40.49
2022-10-01T02:16:26.264Z,40.66
2022-10-01T02:19:02.216Z,40.39
2022-10-01T02:21:36.379Z,40.28
2022-10-01T02:24:11.307Z,40.16
2022-10-01T02:26:40.507Z,40.36
2022-10-01T02:29:13.727Z,40.17
2022-10-01T02:31:43.989Z,40.49
2022-10-01T02:34:20.004Z,40.28
2022-10-01T02:36:50.388Z,40.45
2022-10-01T02:39:23.670Z,40.54
2022-10-01T02:41:55.284Z,40.52
2022-10-01T02:44:30.322Z,40.15
2022-10-01T02:47:07.701Z,40.13
2022-10-01T02:49:41.420Z,40.25
2022-10-01T02:52:18.108Z,40.02
2022-10-01T02:54:51.322Z,40.15
2022-10-01T02:57:29.548Z,40.37
2022-10-01T03:00:00.367Z,40.19
2022-10-01T03:02:32.952Z,40.21
2022-10-01T03:05:02.176Z,39.90
2022-10-01T03:07:32.412Z,39.94
2022-10-01T03:10:00.655Z,39.94
2022-10-01T03:12:29.141Z,39.92
2022-10-01T03:14:57.551Z,39.77
2022-10-01T03:17:26.285Z,40.21
2022-10-01T03:19:56.205Z,39.93
2022-10-01T03:22:25.192Z,39.79
2022-10-01T03:24:54.398Z,39.45
2022-10-01T03:27:23.869Z,39.39
2022-10-01T03:29:52.735Z,39.62
2022-10-01T03:32:21.304Z,39.42
2022-10-01T03:34:50.023Z,39.31
2022-10-01T03:37:19.763Z,39.31
2022-10-01T03:39:48.209Z,39.19
2022-10-01T03:42:16.738Z,39.10
2022-10-01T03:44:45.352Z,38.89
2022-10-01T03:47:13.665Z,39.22
2022-10-01T03:49:42.174Z,39.02
2022-10-01T03:52:10.546Z,39.22
2022-10-01T03:54:40.479Z,39.40
2022-10-01T03:57:09.014Z,39.30
2022-10-01T03:59:37.317Z,39.22
2022-10-01T04:02:06.012Z,39.45
2022-10-01T04:04:34.647Z,39.41
2022-10-01T04:07:02.908Z,39.41
2022-10-01T04:09:31.213Z,39.47
2022-10-01T04:12:01.227Z,39.44
2022-10-01T04:14:29.591Z,39.49
2022-10-01T04:16:59.079Z,39.47
2022-10-01T04:19:27.889Z,39.74
2022-10-01T04:21:56.586Z,40.03
2022-10-01T04:24:24.913Z,39.75
2022-10-01T04:26:53.695Z,39.55
2022-10-01T04:29:23.337Z,39.38
2022-10-01T04:31:53.454Z,39.57
2022-10-01T04:34:42.487Z,39.50
2022-10-01T04:37:11.221Z,39.13
2022-10-01T04:39:39.757Z,39.07
2022-10-01T04:42:08.197Z,39.17
2022-10-01T04:44:37.817Z,39.11
2022-10-01T04:47:06.752Z,38.94
2022-10-01T04:49:35.151Z,39.12
2022-10-01T04:52:05.117Z,39.11
2022-10-01T04:54:33.480Z,39.08
2022-10-01T04:57:01.784Z,39.02
2022-10-01T04:59:31.003Z,39.42
2022-10-01T05:02:00.788Z,39.39
2022-10-01T05:04:29.629Z,39.89
2022-10-01T05:06:58.131Z,39.78
2022-10-01T05:09:26.483Z,39.46
2022-10-01T05:11:54.972Z,39.37
2022-10-01T05:14:23.543Z,39.37
2022-10-01T05:16:51.878Z,38.82
2022-10-01T05:19:25.217Z,38.50
2022-10-01T05:21:56.017Z,39.44
2022-10-01T05:24:24.739Z,39.91
2022-10-01T05:26:54.050Z,40.49
2022-10-01T05:29:23.098Z,40.88
2022-10-01T05:31:51.601Z,41.05
2022-10-01T05:34:21.372Z,41.54
2022-10-01T05:36:49.984Z,41.47
2022-10-01T05:39:18.348Z,42.19
2022-10-01T05:41:46.675Z,42.03
2022-10-01T05:44:15.215Z,42.02
2022-10-01T05:46:43.814Z,41.82
2022-10-01T05:49:12.133Z,40.98
2022-10-01T05:51:42.420Z,39.75
2022-10-01T05:54:10.799Z,39.70
2022-10-01T05:56:39.420Z,38.96
2022-10-01T05:59:08.060Z,38.68
2022-10-01T06:01:36.581Z,38.30
2022-10-01T06:04:05.169Z,38.66
2022-10-01T06:06:33.767Z,38.10
2022-10-01T06:09:03.513Z,38.26
2022-10-01T06:11:31.906Z,37.97
2022-10-01T06:14:00.844Z,37.93
2022-10-01T06:16:29.470Z,37.15
2022-10-01T06:18:58.247Z,37.01
2022-10-01T06:21:27.467Z,36.92
2022-10-01T06:23:55.855Z,36.90
2022-10-01T06:26:26.321Z,37.02
2022-10-01T06:28:54.846Z,36.18
2022-10-01T06:31:23.316Z,36.35
2022-10-01T06:33:51.710Z,36.30
2022-10-01T06:36:20.304Z,37.01
2022-10-01T06:38:49.603Z,37.70
2022-10-01T06:41:18.658Z,37.83
2022-10-01T06:43:49.963Z,38.50
2022-10-01T06:46:18.549Z,38.15
2022-10-01T06:48:46.903Z,38.45
2022-10-01T06:51:15.467Z,38.45
2022-10-01T06:53:43.812Z,38.36
2022-10-01T06:56:12.313Z,38.73
2022-10-01T06:58:41.955Z,38.55
2022-10-01T07:01:12.002Z,38.25
2022-10-01T07:03:40.784Z,38.45
2022-10-01T07:06:11.325Z,38.19
2022-10-01T07:08:39.901Z,38.33
2022-10-01T07:11:08.657Z,37.78
2022-10-01T07:13:37.201Z,38.35
2022-10-01T07:16:06.022Z,38.62
2022-10-01T07:18:35.868Z,38.37
2022-10-01T07:21:04.432Z,37.93
2022-10-01T07:23:32.773Z,38.17
2022-10-01T07:26:01.080Z,37.88
2022-10-01T07:28:29.747Z,37.73
2022-10-01T07:31:01.084Z,37.90
2022-10-01T07:33:30.207Z,37.67
2022-10-01T07:36:03.479Z,37.64
2022-10-01T07:38:33.407Z,37.29
2022-10-01T07:41:03.541Z,37.01
2022-10-01T07:43:34.639Z,36.57
2022-10-01T07:46:03.648Z,36.05
2022-10-01T07:48:32.255Z,35.62
2022-10-01T07:51:02.301Z,35.92
2022-10-01T07:53:31.081Z,35.50
2022-10-01T07:56:02.321Z,35.93
2022-10-01T07:58:30.749Z,36.06
2022-10-01T08:01:00.667Z,36.38
2022-10-01T08:03:29.084Z,35.93
2022-10-01T08:05:57.462Z,36.39
2022-10-01T08:08:27.426Z,36.00
2022-10-01T08:10:55.884Z,36.72
2022-10-01T08:13:25.095Z,36.46
2022-10-01T08:15:54.914Z,35.91
2022-10-01T08:18:24.381Z,36.24
2022-10-01T08:20:52.789Z,36.00
2022-10-01T08:23:22.013Z,35.68
2022-10-01T08:25:51.731Z,35.02
2022-10-01T08:28:20.119Z,35.14
2022-10-01T08:30:48.764Z,34.97
2022-10-01T08:33:17.071Z,34.80
2022-10-01T08:35:45.819Z,34.97
2022-10-01T08:38:15.122Z,36.13
2022-10-01T08:40:47.278Z,36.39
2022-10-01T08:43:31.617Z,36.57
2022-10-01T08:46:04.401Z,36.30
2022-10-01T08:48:44.663Z,36.37
2022-10-01T08:51:23.043Z,36.55
2022-10-01T08:53:55.352Z,36.82
2022-10-01T08:56:28.425Z,36.78
2022-10-01T08:59:01.294Z,36.52
2022-10-01T09:01:31.333Z,36.15
2022-10-01T09:04:00.555Z,36.13
2022-10-01T09:06:29.359Z,36.23
2022-10-01T09:09:21.326Z,36.03
2022-10-01T09:12:01.176Z,36.23
2022-10-01T09:14:56.718Z,36.29
2022-10-01T09:17:41.651Z,36.02
2022-10-01T09:20:19.508Z,36.13
2022-10-01T09:22:56.091Z,36.09
2022-10-01T09:25:26.073Z,35.87
2022-10-01T09:28:03.664Z,36.37
2022-10-01T09:30:34.228Z,35.46
2022-10-01T09:33:12.073Z,36.90
2022-10-01T09:35:46.183Z,38.05
2022-10-01T09:38:22.359Z,38.62
2022-10-01T09:40:54.972Z,37.60
2022-10-01T09:43:25.331Z,36.68
2022-10-01T09:45:55.279Z,35.92
2022-10-01T09:48:32.841Z,35.82
2022-10-01T09:51:08.707Z,35.69
2022-10-01T09:53:43.205Z,35.79
2022-10-01T09:56:17.472Z,35.64
2022-10-01T09:58:52.979Z,35.70
2022-10-01T10:01:38.503Z,35.82
2022-10-01T10:04:07.162Z,36.04
2022-10-01T10:06:36.021Z,35.76
2022-10-01T10:09:05.803Z,35.73
2022-10-01T10:11:35.337Z,36.41
2022-10-01T10:14:05.639Z,36.66
2022-10-01T10:16:38.555Z,36.39
2022-10-01T10:19:16.670Z,35.75
2022-10-01T10:21:53.117Z,35.66
2022-10-01T10:24:27.520Z,37.04
2022-10-01T10:26:58.519Z,35.42
2022-10-01T10:29:30.480Z,35.88
2022-10-01T10:32:04.906Z,36.54
2022-10-01T10:34:38.323Z,36.30
2022-10-01T10:37:14.282Z,36.13
2022-10-01T10:39:47.249Z,36.53
2022-10-01T10:42:16.478Z,36.98
2022-10-01T10:44:49.351Z,37.83
2022-10-01T10:47:21.306Z,37.66
2022-10-01T10:49:54.940Z,37.39
2022-10-01T10:52:29.897Z,37.37
2022-10-01T10:55:00.185Z,37.38
2022-10-01T10:57:30.095Z,36.64
2022-10-01T11:00:00.535Z,36.92
2022-10-01T11:02:32.328Z,36.65
2022-10-01T11:05:04.634Z,36.59
2022-10-01T11:07:34.408Z,36.09
2022-10-01T11:10:26.656Z,36.19
2022-10-01T11:13:09.928Z,36.05
2022-10-01T11:15:52.657Z,35.70
2022-10-01T11:18:42.356Z,35.20
2022-10-01T11:21:29.674Z,34.90
2022-10-01T11:24:16.167Z,36.09
2022-10-01T11:26:55.328Z,35.79
2022-10-01T11:29:37.406Z,35.63
2022-10-01T11:32:19.646Z,35.68
2022-10-01T11:35:06.460Z,35.21
2022-10-01T11:37:49.468Z,35.49
2022-10-01T11:40:25.002Z,36.22
2022-10-01T11:42:59.672Z,37.15
2022-10-01T11:45:32.029Z,37.28
2022-10-01T11:48:06.420Z,37.86
2022-10-01T11:50:42.626Z,37.99
2022-10-01T11:53:18.058Z,38.90
2022-10-01T11:56:12.713Z,38.90
2022-10-01T11:58:54.304Z,38.97
2022-10-01T12:01:41.048Z,39.64
2022-10-01T12:04:25.001Z,39.37
2022-10-01T12:07:00.800Z,39.18
2022-10-01T12:09:37.995Z,39.52
2022-10-01T12:12:11.521Z,39.77
2022-10-01T12:14:46.989Z,39.22
2022-10-01T12:17:23.740Z,39.64
2022-10-01T12:19:55.454Z,39.38
2022-10-01T12:22:31.082Z,39.63
2022-10-01T12:24:59.420Z,39.54
2022-10-01T12:27:49.225Z,39.39
2022-10-01T12:30:21.441Z,40.02
2022-10-01T12:33:16.587Z,39.25
2022-10-01T12:35:56.564Z,39.92
2022-10-01T12:38:38.332Z,39.91
2022-10-01T12:41:20.709Z,40.04
2022-10-01T12:44:15.593Z,40.04
2022-10-01T12:46:51.668Z,40.26
2022-10-01T12:49:27.867Z,40.57
2022-10-01T12:52:06.057Z,40.73
2022-10-01T12:54:55.099Z,40.56
2022-10-01T12:57:37.092Z,40.55
2022-10-01T13:00:12.603Z,40.86
2022-10-01T13:03:14.284Z,40.93
2022-10-01T13:05:57.385Z,41.40
2022-10-01T13:08:45.118Z,42.34
2022-10-01T13:11:28.140Z,42.13
2022-10-01T13:13:58.475Z,41.22
2022-10-01T13:16:37.649Z,41.54
2022-10-01T13:19:14.478Z,41.54
2022-10-01T13:21:58.573Z,40.35
2022-10-01T13:24:37.331Z,40.40
2022-10-01T13:27:13.813Z,40.34
2022-10-01T13:29:53.829Z,40.91
2022-10-01T13:32:28.995Z,40.68
2022-10-01T13:34:59.382Z,40.78
2022-10-01T13:37:37.136Z,40.40
2022-10-01T13:40:20.516Z,41.08
2022-10-01T13:42:52.112Z,40.75
2022-10-01T13:45:41.721Z,40.18
2022-10-01T13:48:20.385Z,40.88
2022-10-01T13:51:03.571Z,41.19
2022-10-01T13:53:36.159Z,41.30
2022-10-01T13:56:05.842Z,41.15
2022-10-01T13:58:39.609Z,41.75
2022-10-01T14:01:29.515Z,41.30
2022-10-01T14:04:06.416Z,41.75
2022-10-01T14:06:43.480Z,41.38
2022-10-01T14:09:16.327Z,41.20
2022-10-01T14:12:05.929Z,41.45
2022-10-01T14:14:55.319Z,41.68
2022-10-01T14:17:28.842Z,41.71
2022-10-01T14:19:58.431Z,41.67
2022-10-01T14:22:53.769Z,41.59
2022-10-01T14:25:32.955Z,41.54
2022-10-01T14:28:39.032Z,41.89
2022-10-01T14:31:17.021Z,46.26
2022-10-01T14:34:19.805Z,47.37
2022-10-01T14:36:50.256Z,47.42
2022-10-01T14:39:20.500Z,47.41
2022-10-01T14:41:51.536Z,47.93
2022-10-01T14:44:25.531Z,48.99
2022-10-01T14:46:56.955Z,51.54
2022-10-01T14:49:27.335Z,52.41
2022-10-01T14:52:02.629Z,54.32
2022-10-01T14:54:35.692Z,53.36
2022-10-01T14:57:10.948Z,54.12
2022-10-01T14:59:41.857Z,53.73
2022-10-01T15:02:21.343Z,52.99
2022-10-01T15:04:51.881Z,53.33
2022-10-01T15:07:20.930Z,59.27
2022-10-01T15:09:50.459Z,59.02
2022-10-01T15:12:23.794Z,59.94
2022-10-01T15:14:55.574Z,58.89
2022-10-01T15:17:28.342Z,58.51
2022-10-01T15:19:58.688Z,58.35
2022-10-01T15:22:30.708Z,58.75
2022-10-01T15:25:02.128Z,59.22
2022-10-01T15:27:31.734Z,59.90
2022-10-01T15:30:01.249Z,62.29
2022-10-01T15:32:31.268Z,67.10
2022-10-01T15:35:02.710Z,78.78
2022-10-01T15:37:35.640Z,83.68
2022-10-01T15:40:08.202Z,84.94
2022-10-01T15:42:37.641Z,83.40
2022-10-01T15:45:23.971Z,83.97
2022-10-01T15:47:57.143Z,82.23
2022-10-01T15:50:28.511Z,83.01
2022-10-01T15:53:06.174Z,82.98
2022-10-01T15:55:43.808Z,82.70
2022-10-01T15:58:16.759Z,81.97
2022-10-01T16:00:59.949Z,81.61
2022-10-01T16:03:33.519Z,80.32
2022-10-01T16:06:04.160Z,80.08
2022-10-01T16:08:37.026Z,79.69
2022-10-01T16:11:20.548Z,79.59
2022-10-01T16:13:50.687Z,79.33
2022-10-01T16:16:26.009Z,79.06
2022-10-01T16:19:00.037Z,78.84
2022-10-01T16:21:29.045Z,78.13
2022-10-01T16:23:57.811Z,78.41
2022-10-01T16:26:40.337Z,78.72
2022-10-01T16:29:25.882Z,77.75
2022-10-01T16:31:55.112Z,78.43
2022-10-01T16:34:27.853Z,77.74
2022-10-01T16:36:56.197Z,77.92
2022-10-01T16:39:25.338Z,77.72
2022-10-01T16:42:19.003Z,77.50
2022-10-01T16:44:43.811Z,77.80
2022-10-01T16:47:13.166Z,77.69
2022-10-01T16:49:42.901Z,77.27
2022-10-01T16:52:16.735Z,76.42
2022-10-01T16:54:47.453Z,76.57
2022-10-01T16:57:16.865Z,74.33
2022-10-01T16:59:45.391Z,76.37
2022-10-01T17:02:15.634Z,76.87
2022-10-01T17:04:45.709Z,76.75
2022-10-01T17:07:14.186Z,74.35
2022-10-01T17:09:42.603Z,75.11
2022-10-01T17:12:11.317Z,76.28
2022-10-01T17:14:39.570Z,76.26
2022-10-01T17:17:07.949Z,75.17
2022-10-01T17:19:36.600Z,75.38
2022-10-01T17:22:06.357Z,74.03
2022-10-01T17:24:34.840Z,74.83
2022-10-01T17:27:03.422Z,74.55
2022-10-01T17:29:33.478Z,75.99
2022-10-01T17:32:02.082Z,76.11
2022-10-01T17:34:30.778Z,76.28
2022-10-01T17:37:00.415Z,75.80
2022-10-01T17:39:30.699Z,75.99
2022-10-01T17:41:59.387Z,75.92
2022-10-01T17:44:27.888Z,75.74
2022-10-01T17:46:56.332Z,75.83
2022-10-01T17:49:25.232Z,76.55
2022-10-01T17:51:53.923Z,76.44
2022-10-01T17:54:23.326Z,76.31
2022-10-01T17:56:54.925Z,75.23
2022-10-01T17:59:23.975Z,74.75
2022-10-01T18:01:53.296Z,75.32
2022-10-01T18:04:21.697Z,75.02
2022-10-01T18:06:52.255Z,74.39
2022-10-01T18:09:21.126Z,75.14
2022-10-01T18:11:49.892Z,75.92
2022-10-01T18:14:19.834Z,75.66
2022-10-01T18:16:48.389Z,76.30
2022-10-01T18:19:52.741Z,75.04
2022-10-01T18:22:13.555Z,75.33
2022-10-01T18:24:42.935Z,75.51
2022-10-01T18:27:11.597Z,75.32
2022-10-01T18:29:41.641Z,75.10
2022-10-01T18:32:16.862Z,75.51
2022-10-01T18:34:50.962Z,75.15
2022-10-01T18:37:27.668Z,74.99
2022-10-01T18:40:01.183Z,75.02
2022-10-01T18:42:38.473Z,75.50
2022-10-01T18:45:16.050Z,75.71
2022-10-01T18:47:55.812Z,77.27
2022-10-01T18:50:40.268Z,76.69
2022-10-01T18:53:22.298Z,76.57
2022-10-01T18:56:08.935Z,77.56
2022-10-01T18:59:02.504Z,76.51
2022-10-01T19:01:43.604Z,76.81
2022-10-01T19:04:30.176Z,77.14
2022-10-01T19:07:09.695Z,76.34
2022-10-01T19:09:51.973Z,75.85
2022-10-01T19:12:38.144Z,74.57
2022-10-01T19:15:20.847Z,74.61
2022-10-01T19:18:03.892Z,74.66
2022-10-01T19:20:48.723Z,74.38
2022-10-01T19:23:31.990Z,75.70
2022-10-01T19:26:08.948Z,74.51
2022-10-01T19:29:04.291Z,74.19
2022-10-01T19:31:42.759Z,73.63
2022-10-01T19:34:19.149Z,73.30
2022-10-01T19:36:54.699Z,74.86
2022-10-01T19:39:27.299Z,74.41
2022-10-01T19:42:00.513Z,74.07
2022-10-01T19:44:33.560Z,75.03
2022-10-01T19:47:15.721Z,74.98
2022-10-01T19:49:48.923Z,74.05
2022-10-01T19:52:19.985Z,73.96
2022-10-01T19:54:55.191Z,74.56
2022-10-01T19:57:25.757Z,74.09
2022-10-01T19:59:57.188Z,73.67
2022-10-01T20:02:33.988Z,72.93
2022-10-01T20:05:06.415Z,71.38
2022-10-01T20:07:42.395Z,71.70
2022-10-01T20:10:21.669Z,71.19
2022-10-01T20:13:02.261Z,71.28
2022-10-01T20:15:44.477Z,70.77
2022-10-01T20:18:28.023Z,70.30
2022-10-01T20:21:18.083Z,69.33
2022-10-01T20:23:55.141Z,70.68
2022-10-01T20:26:31.467Z,70.53
2022-10-01T20:29:14.941Z,67.65
2022-10-01T20:31:53.299Z,69.32
2022-10-01T20:34:29.317Z,69.08
2022-10-01T20:37:15.547Z,69.45
2022-10-01T20:39:50.215Z,69.74
2022-10-01T20:42:24.214Z,69.62
2022-10-01T20:44:54.088Z,69.50
2022-10-01T20:47:28.819Z,69.03
2022-10-01T20:50:09.127Z,69.70
2022-10-01T20:52:48.787Z,69.47
2022-10-01T20:55:26.593Z,69.80
2022-10-01T20:57:59.434Z,69.31
2022-10-01T21:00:29.522Z,69.14
2022-10-01T21:03:05.580Z,68.77
2022-10-01T21:05:38.435Z,68.69
2022-10-01T21:08:18.824Z,68.03
2022-10-01T21:10:51.640Z,67.86
2022-10-01T21:13:33.425Z,68.27
2022-10-01T21:16:16.203Z,64.73
2022-10-01T21:18:57.390Z,66.89
2022-10-01T21:21:33.995Z,67.36
2022-10-01T21:24:18.679Z,66.70
2022-10-01T21:27:01.692Z,67.53
2022-10-01T21:29:56.896Z,65.35
2022-10-01T21:32:39.496Z,65.63
2022-10-01T21:35:23.200Z,66.47
2022-10-01T21:38:01.668Z,65.62
2022-10-01T21:40:44.258Z,66.34
2022-10-01T21:43:24.040Z,67.08
2022-10-01T21:46:04.490Z,65.50
2022-10-01T21:48:41.485Z,67.63
2022-10-01T21:51:17.985Z,67.25
2022-10-01T21:54:03.955Z,65.85
2022-10-01T21:56:55.041Z,67.53
2022-10-01T21:59:40.452Z,67.23
2022-10-01T22:02:22.518Z,67.01
2022-10-01T22:04:56.712Z,66.33
2022-10-01T22:07:35.490Z,67.14
2022-10-01T22:10:11.456Z,66.43
2022-10-01T22:12:45.567Z,66.76
2022-10-01T22:15:24.495Z,67.97
2022-10-01T22:17:55.828Z,68.25
2022-10-01T22:20:29.158Z,68.29
2022-10-01T22:23:01.872Z,68.27
2022-10-01T22:25:33.251Z,68.46
2022-10-01T22:28:07.235Z,66.68
2022-10-01T22:30:41.512Z,67.70
2022-10-01T22:33:13.689Z,67.32
2022-10-01T22:35:50.056Z,67.24
2022-10-01T22:38:24.681Z,66.91
2022-10-01T22:41:01.602Z,67.37
2022-10-01T22:43:32.165Z,68.47
2022-10-01T22:46:25.789Z,68.64
2022-10-01T22:49:01.028Z,68.34
2022-10-01T22:51:51.021Z,68.41
2022-10-01T22:54:31.270Z,69.37
2022-10-01T22:57:14.491Z,69.22
2022-10-01T22:59:57.366Z,69.12
2022-10-01T23:02:33.359Z,70.05
2022-10-01T23:05:33.716Z,68.60
2022-10-01T23:08:13.320Z,69.25
2022-10-01T23:10:51.498Z,69.64
2022-10-01T23:13:27.704Z,69.64
2022-10-01T23:16:04.200Z,70.80
2022-10-01T23:18:47.013Z,70.94
2022-10-01T23:21:27.313Z,71.13
2022-10-01T23:24:03.776Z,72.00
2022-10-01T23:26:40.362Z,70.71
2022-10-01T23:29:36.669Z,70.62
2022-10-01T23:32:21.484Z,70.79
2022-10-01T23:35:00.687Z,70.80
2022-10-01T23:37:53.709Z,71.69
2022-10-01T23:40:26.801Z,73.01
2022-10-01T23:43:01.840Z,73.37
2022-10-01T23:45:35.140Z,75.33
2022-10-01T23:48:14.356Z,78.18
2022-10-01T23:50:49.263Z,79.77
2022-10-01T23:53:22.519Z,80.59
2022-10-01T23:56:18.963Z,79.83
2022-10-01T23:58:51.670Z,80.80
